sensor_id;sensor_type;location;lat;lon;timestamp;pressure;altitude;pressure_sealevel;temperature;humidity
73205;BME280;61413;-27.702;153.216;2024-01-07T00:00:18;101805.95;;;31.83;27.36
73205;BME280;61413;-27.702;153.216;2024-01-07T00:02:45;101817.31;;;31.94;27.58
73205;BME280;61413;-27.702;153.216;2024-01-07T00:05:12;101816.47;;;31.71;27.07
73205;BME280;61413;-27.702;153.216;2024-01-07T00:07:39;101809.86;;;32.72;25.75
73205;BME280;61413;-27.702;153.216;2024-01-07T00:12:58;101814.67;;;31.03;27.24
73205;BME280;61413;-27.702;153.216;2024-01-07T00:15:24;101812.40;;;32.62;26.30
73205;BME280;61413;-27.702;153.216;2024-01-07T00:17:51;101805.31;;;30.99;27.54
73205;BME280;61413;-27.702;153.216;2024-01-07T00:20:18;101806.32;;;30.01;27.70
73205;BME280;61413;-27.702;153.216;2024-01-07T00:22:45;101798.01;;;29.02;28.98
73205;BME280;61413;-27.702;153.216;2024-01-07T00:27:22;101793.45;;;31.54;28.71
73205;BME280;61413;-27.702;153.216;2024-01-07T00:29:50;101790.38;;;31.50;28.32
73205;BME280;61413;-27.702;153.216;2024-01-07T00:32:17;101783.56;;;30.56;28.48
73205;BME280;61413;-27.702;153.216;2024-01-07T00:34:43;101783.39;;;30.35;28.50
73205;BME280;61413;-27.702;153.216;2024-01-07T00:37:12;101787.65;;;29.44;29.19
73205;BME280;61413;-27.702;153.216;2024-01-07T00:39:39;101778.54;;;29.13;29.74
73205;BME280;61413;-27.702;153.216;2024-01-07T00:42:06;101780.57;;;28.47;30.06
73205;BME280;61413;-27.702;153.216;2024-01-07T00:44:33;101779.18;;;28.78;30.13
73205;BME280;61413;-27.702;153.216;2024-01-07T00:47:00;101786.60;;;28.86;30.38
73205;BME280;61413;-27.702;153.216;2024-01-07T00:49:26;101785.01;;;28.72;30.19
73205;BME280;61413;-27.702;153.216;2024-01-07T00:51:54;101780.36;;;28.34;30.30
73205;BME280;61413;-27.702;153.216;2024-01-07T00:54:20;101780.86;;;28.02;30.82
73205;BME280;61413;-27.702;153.216;2024-01-07T00:56:47;101774.47;;;27.92;31.25
73205;BME280;61413;-27.702;153.216;2024-01-07T00:59:14;101771.50;;;28.09;31.08
73205;BME280;61413;-27.702;153.216;2024-01-07T01:01:40;101769.15;;;28.20;31.15
73205;BME280;61413;-27.702;153.216;2024-01-07T01:04:07;101765.00;;;30.49;29.45
73205;BME280;61413;-27.702;153.216;2024-01-07T01:06:34;101759.17;;;30.47;28.87
73205;BME280;61413;-27.702;153.216;2024-01-07T01:10:56;101759.11;;;31.06;27.78
73205;BME280;61413;-27.702;153.216;2024-01-07T01:13:24;101761.73;;;32.27;26.39
73205;BME280;61413;-27.702;153.216;2024-01-07T01:18:20;101757.29;;;30.08;28.03
73205;BME280;61413;-27.702;153.216;2024-01-07T01:20:46;101756.82;;;31.82;26.99
73205;BME280;61413;-27.702;153.216;2024-01-07T01:23:13;101756.15;;;31.44;27.51
73205;BME280;61413;-27.702;153.216;2024-01-07T01:25:40;101755.41;;;30.80;27.91
73205;BME280;61413;-27.702;153.216;2024-01-07T01:28:07;101755.96;;;31.37;27.36
73205;BME280;61413;-27.702;153.216;2024-01-07T01:30:34;101747.89;;;33.07;26.33
73205;BME280;61413;-27.702;153.216;2024-01-07T01:33:01;101748.31;;;34.94;24.86
73205;BME280;61413;-27.702;153.216;2024-01-07T01:35:28;101764.49;;;31.78;26.00
73205;BME280;61413;-27.702;153.216;2024-01-07T01:37:55;101756.11;;;30.60;28.31
73205;BME280;61413;-27.702;153.216;2024-01-07T01:40:22;101755.55;;;29.82;29.73
73205;BME280;61413;-27.702;153.216;2024-01-07T01:42:48;101752.28;;;29.39;30.25
73205;BME280;61413;-27.702;153.216;2024-01-07T01:45:15;101750.60;;;29.13;30.34
73205;BME280;61413;-27.702;153.216;2024-01-07T01:47:42;101749.69;;;28.83;30.64
73205;BME280;61413;-27.702;153.216;2024-01-07T01:50:12;101746.26;;;28.93;30.58
73205;BME280;61413;-27.702;153.216;2024-01-07T01:52:36;101732.05;;;29.45;30.51
73205;BME280;61413;-27.702;153.216;2024-01-07T01:55:04;101731.81;;;29.69;30.46
73205;BME280;61413;-27.702;153.216;2024-01-07T01:58:59;101727.97;;;29.24;30.28
73205;BME280;61413;-27.702;153.216;2024-01-07T02:01:27;101737.71;;;28.58;30.41
73205;BME280;61413;-27.702;153.216;2024-01-07T02:03:51;101731.65;;;28.41;30.85
73205;BME280;61413;-27.702;153.216;2024-01-07T02:06:18;101725.22;;;27.82;30.97
73205;BME280;61413;-27.702;153.216;2024-01-07T02:08:45;101723.01;;;28.30;30.80
73205;BME280;61413;-27.702;153.216;2024-01-07T02:11:20;101722.27;;;28.74;30.61
73205;BME280;61413;-27.702;153.216;2024-01-07T02:13:40;101725.35;;;28.89;30.57
73205;BME280;61413;-27.702;153.216;2024-01-07T02:16:07;101724.29;;;28.80;30.52
73205;BME280;61413;-27.702;153.216;2024-01-07T02:18:35;101727.07;;;28.58;30.98
73205;BME280;61413;-27.702;153.216;2024-01-07T02:22:40;101707.26;;;28.75;31.51
73205;BME280;61413;-27.702;153.216;2024-01-07T02:25:07;101709.51;;;29.18;31.88
73205;BME280;61413;-27.702;153.216;2024-01-07T02:27:34;101710.14;;;28.66;32.27
73205;BME280;61413;-27.702;153.216;2024-01-07T02:30:01;101696.45;;;28.76;32.39
73205;BME280;61413;-27.702;153.216;2024-01-07T02:32:28;101700.80;;;29.07;32.29
73205;BME280;61413;-27.702;153.216;2024-01-07T02:34:55;101696.44;;;29.14;31.78
73205;BME280;61413;-27.702;153.216;2024-01-07T02:37:22;101708.53;;;28.96;32.17
73205;BME280;61413;-27.702;153.216;2024-01-07T02:39:50;101700.46;;;28.01;32.00
73205;BME280;61413;-27.702;153.216;2024-01-07T02:42:17;101696.32;;;28.59;32.54
73205;BME280;61413;-27.702;153.216;2024-01-07T02:44:44;101696.53;;;29.03;32.70
73205;BME280;61413;-27.702;153.216;2024-01-07T02:50:09;101688.98;;;28.82;32.66
73205;BME280;61413;-27.702;153.216;2024-01-07T02:53:34;101679.90;;;28.84;32.84
73205;BME280;61413;-27.702;153.216;2024-01-07T02:56:01;101675.95;;;29.47;32.16
73205;BME280;61413;-27.702;153.216;2024-01-07T02:58:28;101683.14;;;29.01;31.90
73205;BME280;61413;-27.702;153.216;2024-01-07T03:00:56;101680.45;;;28.47;32.47
73205;BME280;61413;-27.702;153.216;2024-01-07T03:03:23;101686.70;;;28.95;32.90
73205;BME280;61413;-27.702;153.216;2024-01-07T03:05:50;101679.42;;;29.05;32.72
73205;BME280;61413;-27.702;153.216;2024-01-07T03:08:18;101689.66;;;28.70;32.67
73205;BME280;61413;-27.702;153.216;2024-01-07T03:10:45;101689.39;;;28.50;32.83
73205;BME280;61413;-27.702;153.216;2024-01-07T03:16:28;101689.43;;;28.61;32.83
73205;BME280;61413;-27.702;153.216;2024-01-07T03:18:56;101687.35;;;28.36;32.88
73205;BME280;61413;-27.702;153.216;2024-01-07T03:21:24;101691.38;;;28.70;32.48
73205;BME280;61413;-27.702;153.216;2024-01-07T03:23:51;101681.79;;;28.45;32.48
73205;BME280;61413;-27.702;153.216;2024-01-07T03:26:20;101685.32;;;28.43;32.64
73205;BME280;61413;-27.702;153.216;2024-01-07T03:28:48;101671.84;;;28.59;32.46
73205;BME280;61413;-27.702;153.216;2024-01-07T03:31:18;101673.56;;;28.43;32.49
73205;BME280;61413;-27.702;153.216;2024-01-07T03:33:42;101667.09;;;28.37;32.40
73205;BME280;61413;-27.702;153.216;2024-01-07T03:36:12;101673.91;;;28.69;32.42
73205;BME280;61413;-27.702;153.216;2024-01-07T03:38:36;101661.20;;;28.64;32.66
73205;BME280;61413;-27.702;153.216;2024-01-07T03:41:04;101666.62;;;28.01;32.99
73205;BME280;61413;-27.702;153.216;2024-01-07T03:43:30;101670.80;;;27.64;33.39
73205;BME280;61413;-27.702;153.216;2024-01-07T03:45:57;101672.30;;;27.19;33.86
73205;BME280;61413;-27.702;153.216;2024-01-07T03:48:25;101665.36;;;27.46;33.65
73205;BME280;61413;-27.702;153.216;2024-01-07T03:50:52;101657.39;;;27.69;33.43
73205;BME280;61413;-27.702;153.216;2024-01-07T03:53:20;101652.23;;;27.61;33.28
73205;BME280;61413;-27.702;153.216;2024-01-07T03:55:46;101649.09;;;27.96;33.16
73205;BME280;61413;-27.702;153.216;2024-01-07T03:58:13;101642.58;;;28.27;33.17
73205;BME280;61413;-27.702;153.216;2024-01-07T04:00:40;101642.70;;;28.55;32.51
73205;BME280;61413;-27.702;153.216;2024-01-07T04:03:07;101639.74;;;28.39;32.42
73205;BME280;61413;-27.702;153.216;2024-01-07T04:05:34;101633.06;;;28.33;32.41
73205;BME280;61413;-27.702;153.216;2024-01-07T04:08:01;101625.46;;;27.80;32.80
73205;BME280;61413;-27.702;153.216;2024-01-07T04:10:28;101622.63;;;27.84;32.96
73205;BME280;61413;-27.702;153.216;2024-01-07T04:12:55;101616.44;;;27.62;33.00
73205;BME280;61413;-27.702;153.216;2024-01-07T04:15:22;101618.08;;;27.42;33.21
73205;BME280;61413;-27.702;153.216;2024-01-07T04:17:49;101617.02;;;27.63;33.27
73205;BME280;61413;-27.702;153.216;2024-01-07T04:20:16;101607.15;;;28.20;33.14
73205;BME280;61413;-27.702;153.216;2024-01-07T04:22:44;101602.24;;;28.56;32.87
73205;BME280;61413;-27.702;153.216;2024-01-07T04:25:11;101604.19;;;28.74;32.74
73205;BME280;61413;-27.702;153.216;2024-01-07T04:27:38;101603.11;;;28.41;32.93
73205;BME280;61413;-27.702;153.216;2024-01-07T04:30:06;101595.17;;;28.74;32.90
73205;BME280;61413;-27.702;153.216;2024-01-07T04:32:33;101586.59;;;28.42;32.79
73205;BME280;61413;-27.702;153.216;2024-01-07T04:35:00;101587.53;;;28.45;33.08
73205;BME280;61413;-27.702;153.216;2024-01-07T04:41:51;101583.79;;;27.53;33.70
73205;BME280;61413;-27.702;153.216;2024-01-07T04:44:19;101579.34;;;28.16;33.53
73205;BME280;61413;-27.702;153.216;2024-01-07T04:46:47;101585.54;;;27.88;33.18
73205;BME280;61413;-27.702;153.216;2024-01-07T04:49:15;101580.91;;;27.98;33.12
73205;BME280;61413;-27.702;153.216;2024-01-07T04:51:42;101584.00;;;28.23;33.21
73205;BME280;61413;-27.702;153.216;2024-01-07T04:54:09;101577.80;;;28.16;33.19
73205;BME280;61413;-27.702;153.216;2024-01-07T04:56:37;101582.89;;;27.71;33.43
73205;BME280;61413;-27.702;153.216;2024-01-07T04:59:04;101574.86;;;27.78;33.81
73205;BME280;61413;-27.702;153.216;2024-01-07T05:01:32;101575.50;;;27.43;34.09
73205;BME280;61413;-27.702;153.216;2024-01-07T05:03:59;101563.89;;;27.72;34.24
73205;BME280;61413;-27.702;153.216;2024-01-07T05:06:26;101558.35;;;27.35;35.08
73205;BME280;61413;-27.702;153.216;2024-01-07T05:08:52;101559.55;;;27.30;35.89
73205;BME280;61413;-27.702;153.216;2024-01-07T05:11:19;101559.22;;;26.89;36.45
73205;BME280;61413;-27.702;153.216;2024-01-07T05:15:28;101557.06;;;26.79;36.73
73205;BME280;61413;-27.702;153.216;2024-01-07T05:17:55;101562.88;;;26.68;36.85
73205;BME280;61413;-27.702;153.216;2024-01-07T05:20:22;101554.81;;;26.77;37.07
73205;BME280;61413;-27.702;153.216;2024-01-07T05:22:50;101553.99;;;26.79;37.07
73205;BME280;61413;-27.702;153.216;2024-01-07T05:25:17;101559.18;;;26.99;36.65
73205;BME280;61413;-27.702;153.216;2024-01-07T05:27:44;101561.52;;;26.95;36.89
73205;BME280;61413;-27.702;153.216;2024-01-07T05:30:12;101562.75;;;26.80;37.08
73205;BME280;61413;-27.702;153.216;2024-01-07T05:32:39;101559.92;;;26.87;37.16
73205;BME280;61413;-27.702;153.216;2024-01-07T05:35:07;101543.28;;;26.96;36.81
73205;BME280;61413;-27.702;153.216;2024-01-07T05:37:43;101535.99;;;26.92;36.73
73205;BME280;61413;-27.702;153.216;2024-01-07T05:40:03;101541.37;;;27.14;36.51
73205;BME280;61413;-27.702;153.216;2024-01-07T05:42:30;101537.79;;;26.89;36.54
73205;BME280;61413;-27.702;153.216;2024-01-07T05:44:57;101536.63;;;26.92;36.63
73205;BME280;61413;-27.702;153.216;2024-01-07T05:47:24;101537.84;;;26.31;37.05
73205;BME280;61413;-27.702;153.216;2024-01-07T05:49:51;101546.03;;;26.17;37.35
73205;BME280;61413;-27.702;153.216;2024-01-07T05:52:18;101554.30;;;25.53;37.70
73205;BME280;61413;-27.702;153.216;2024-01-07T05:54:46;101559.82;;;25.45;38.33
73205;BME280;61413;-27.702;153.216;2024-01-07T05:57:14;101561.56;;;25.32;39.13
73205;BME280;61413;-27.702;153.216;2024-01-07T05:59:41;101560.94;;;24.70;40.07
73205;BME280;61413;-27.702;153.216;2024-01-07T06:02:08;101565.81;;;24.20;40.64
73205;BME280;61413;-27.702;153.216;2024-01-07T06:04:36;101561.65;;;24.52;41.04
73205;BME280;61413;-27.702;153.216;2024-01-07T06:09:21;101567.61;;;24.73;41.74
73205;BME280;61413;-27.702;153.216;2024-01-07T06:11:48;101570.56;;;24.34;41.89
73205;BME280;61413;-27.702;153.216;2024-01-07T06:14:15;101571.39;;;23.80;42.56
73205;BME280;61413;-27.702;153.216;2024-01-07T06:16:42;101575.42;;;23.18;44.29
73205;BME280;61413;-27.702;153.216;2024-01-07T06:19:09;101569.22;;;22.93;45.03
73205;BME280;61413;-27.702;153.216;2024-01-07T06:22:49;101573.88;;;22.66;45.76
73205;BME280;61413;-27.702;153.216;2024-01-07T06:25:16;101573.29;;;22.95;46.01
73205;BME280;61413;-27.702;153.216;2024-01-07T06:27:43;101579.37;;;22.92;46.19
73205;BME280;61413;-27.702;153.216;2024-01-07T06:30:11;101574.68;;;23.00;46.13
73205;BME280;61413;-27.702;153.216;2024-01-07T06:32:38;101577.32;;;23.26;45.92
73205;BME280;61413;-27.702;153.216;2024-01-07T06:35:05;101579.05;;;23.61;45.71
73205;BME280;61413;-27.702;153.216;2024-01-07T06:37:32;101582.19;;;23.71;45.31
73205;BME280;61413;-27.702;153.216;2024-01-07T06:39:58;101582.53;;;23.71;44.95
73205;BME280;61413;-27.702;153.216;2024-01-07T06:42:26;101586.83;;;24.01;44.45
73205;BME280;61413;-27.702;153.216;2024-01-07T06:44:52;101588.75;;;24.02;43.92
73205;BME280;61413;-27.702;153.216;2024-01-07T06:47:19;101594.08;;;24.38;43.57
73205;BME280;61413;-27.702;153.216;2024-01-07T06:49:55;101597.78;;;24.30;43.29
73205;BME280;61413;-27.702;153.216;2024-01-07T06:52:13;101600.31;;;24.19;43.08
73205;BME280;61413;-27.702;153.216;2024-01-07T06:54:42;101602.51;;;24.33;43.03
73205;BME280;61413;-27.702;153.216;2024-01-07T06:57:10;101607.29;;;24.20;42.81
73205;BME280;61413;-27.702;153.216;2024-01-07T07:00:36;101612.53;;;23.63;42.79
73205;BME280;61413;-27.702;153.216;2024-01-07T07:03:03;101610.96;;;23.80;42.33
73205;BME280;61413;-27.702;153.216;2024-01-07T07:05:29;101612.20;;;23.89;41.71
73205;BME280;61413;-27.702;153.216;2024-01-07T07:07:56;101615.88;;;24.12;41.33
73205;BME280;61413;-27.702;153.216;2024-01-07T07:10:23;101615.49;;;24.04;41.28
73205;BME280;61413;-27.702;153.216;2024-01-07T07:12:50;101614.10;;;24.40;41.45
73205;BME280;61413;-27.702;153.216;2024-01-07T07:15:17;101611.64;;;24.29;41.68
73205;BME280;61413;-27.702;153.216;2024-01-07T07:17:44;101614.47;;;24.37;41.64
73205;BME280;61413;-27.702;153.216;2024-01-07T07:20:11;101618.28;;;24.52;41.81
73205;BME280;61413;-27.702;153.216;2024-01-07T07:22:38;101630.12;;;24.52;42.08
73205;BME280;61413;-27.702;153.216;2024-01-07T07:25:05;101638.49;;;24.42;42.23
73205;BME280;61413;-27.702;153.216;2024-01-07T07:27:34;101634.37;;;24.26;42.57
73205;BME280;61413;-27.702;153.216;2024-01-07T07:30:00;101628.66;;;24.08;42.82
73205;BME280;61413;-27.702;153.216;2024-01-07T07:32:27;101619.50;;;23.69;43.16
73205;BME280;61413;-27.702;153.216;2024-01-07T07:34:56;101620.24;;;23.56;43.35
73205;BME280;61413;-27.702;153.216;2024-01-07T07:37:22;101627.73;;;23.66;43.47
73205;BME280;61413;-27.702;153.216;2024-01-07T07:39:49;101627.69;;;23.60;43.78
73205;BME280;61413;-27.702;153.216;2024-01-07T07:42:16;101632.44;;;23.29;44.16
73205;BME280;61413;-27.702;153.216;2024-01-07T07:44:44;101636.02;;;23.31;44.34
73205;BME280;61413;-27.702;153.216;2024-01-07T07:47:10;101632.93;;;23.23;44.51
73205;BME280;61413;-27.702;153.216;2024-01-07T07:49:37;101631.51;;;22.76;44.88
73205;BME280;61413;-27.702;153.216;2024-01-07T07:54:14;101622.41;;;22.43;45.91
73205;BME280;61413;-27.702;153.216;2024-01-07T07:56:41;101621.19;;;22.63;46.09
73205;BME280;61413;-27.702;153.216;2024-01-07T07:59:09;101626.01;;;22.45;46.21
73205;BME280;61413;-27.702;153.216;2024-01-07T08:01:36;101629.70;;;22.34;46.40
73205;BME280;61413;-27.702;153.216;2024-01-07T08:04:03;101637.54;;;22.35;46.58
73205;BME280;61413;-27.702;153.216;2024-01-07T08:06:31;101643.08;;;22.58;46.44
73205;BME280;61413;-27.702;153.216;2024-01-07T08:09:07;101647.27;;;22.47;46.44
73205;BME280;61413;-27.702;153.216;2024-01-07T08:11:26;101649.23;;;22.30;46.48
73205;BME280;61413;-27.702;153.216;2024-01-07T08:14:56;101652.16;;;22.38;46.79
73205;BME280;61413;-27.702;153.216;2024-01-07T08:17:23;101651.87;;;21.82;46.86
73205;BME280;61413;-27.702;153.216;2024-01-07T08:19:59;101650.69;;;21.85;47.17
73205;BME280;61413;-27.702;153.216;2024-01-07T08:22:18;101651.62;;;21.87;47.69
73205;BME280;61413;-27.702;153.216;2024-01-07T08:24:53;101650.29;;;21.65;48.27
73205;BME280;61413;-27.702;153.216;2024-01-07T08:27:19;101659.91;;;21.60;48.75
73205;BME280;61413;-27.702;153.216;2024-01-07T08:29:38;101659.37;;;21.62;49.30
73205;BME280;61413;-27.702;153.216;2024-01-07T08:32:06;101661.42;;;21.20;49.70
73205;BME280;61413;-27.702;153.216;2024-01-07T08:34:32;101662.27;;;21.72;49.88
73205;BME280;61413;-27.702;153.216;2024-01-07T08:36:59;101664.18;;;21.23;50.01
73205;BME280;61413;-27.702;153.216;2024-01-07T08:39:26;101662.73;;;21.88;50.25
73205;BME280;61413;-27.702;153.216;2024-01-07T08:41:53;101658.46;;;21.89;50.36
73205;BME280;61413;-27.702;153.216;2024-01-07T08:44:20;101650.78;;;21.70;50.48
73205;BME280;61413;-27.702;153.216;2024-01-07T08:46:50;101650.24;;;21.66;50.53
73205;BME280;61413;-27.702;153.216;2024-01-07T08:49:12;101654.23;;;21.70;50.54
73205;BME280;61413;-27.702;153.216;2024-01-07T08:51:39;101657.61;;;21.78;50.63
73205;BME280;61413;-27.702;153.216;2024-01-07T08:56:52;101661.86;;;21.69;51.18
73205;BME280;61413;-27.702;153.216;2024-01-07T08:59:19;101662.88;;;21.82;51.16
73205;BME280;61413;-27.702;153.216;2024-01-07T09:01:45;101660.76;;;21.91;51.11
73205;BME280;61413;-27.702;153.216;2024-01-07T09:04:12;101660.08;;;21.87;51.10
73205;BME280;61413;-27.702;153.216;2024-01-07T09:06:39;101658.56;;;21.71;51.05
73205;BME280;61413;-27.702;153.216;2024-01-07T09:09:06;101659.75;;;21.87;51.05
73205;BME280;61413;-27.702;153.216;2024-01-07T09:11:33;101648.02;;;21.57;51.09
73205;BME280;61413;-27.702;153.216;2024-01-07T09:14:00;101639.33;;;21.71;51.10
73205;BME280;61413;-27.702;153.216;2024-01-07T09:16:28;101642.80;;;21.86;51.10
73205;BME280;61413;-27.702;153.216;2024-01-07T09:18:54;101650.33;;;21.75;51.08
73205;BME280;61413;-27.702;153.216;2024-01-07T09:21:23;101651.08;;;21.78;51.14
73205;BME280;61413;-27.702;153.216;2024-01-07T09:23:47;101655.18;;;21.65;51.02
73205;BME280;61413;-27.702;153.216;2024-01-07T09:27:26;101645.92;;;22.02;51.17
73205;BME280;61413;-27.702;153.216;2024-01-07T09:30:02;101642.84;;;21.78;51.09
73205;BME280;61413;-27.702;153.216;2024-01-07T09:32:20;101636.03;;;21.81;51.05
73205;BME280;61413;-27.702;153.216;2024-01-07T09:34:47;101643.34;;;21.89;50.88
73205;BME280;61413;-27.702;153.216;2024-01-07T09:37:14;101650.46;;;21.74;50.85
73205;BME280;61413;-27.702;153.216;2024-01-07T09:39:41;101662.81;;;22.06;50.65
73205;BME280;61413;-27.702;153.216;2024-01-07T09:42:12;101673.05;;;21.88;50.60
73205;BME280;61413;-27.702;153.216;2024-01-07T09:44:36;101681.74;;;21.95;50.46
73205;BME280;61413;-27.702;153.216;2024-01-07T09:47:04;101685.37;;;21.76;50.41
73205;BME280;61413;-27.702;153.216;2024-01-07T09:49:31;101686.74;;;21.83;50.31
73205;BME280;61413;-27.702;153.216;2024-01-07T09:57:56;101660.94;;;21.95;50.59
73205;BME280;61413;-27.702;153.216;2024-01-07T10:00:25;101655.15;;;22.23;50.28
73205;BME280;61413;-27.702;153.216;2024-01-07T10:02:48;101654.96;;;22.06;50.04
73205;BME280;61413;-27.702;153.216;2024-01-07T10:05:15;101658.21;;;22.14;49.82
73205;BME280;61413;-27.702;153.216;2024-01-07T10:07:42;101663.51;;;21.63;49.65
73205;BME280;61413;-27.702;153.216;2024-01-07T10:10:17;101662.56;;;22.14;49.50
73205;BME280;61413;-27.702;153.216;2024-01-07T10:12:36;101669.51;;;21.94;49.37
73205;BME280;61413;-27.702;153.216;2024-01-07T10:15:03;101673.57;;;21.74;49.27
73205;BME280;61413;-27.702;153.216;2024-01-07T10:17:35;101670.50;;;22.04;49.16
73205;BME280;61413;-27.702;153.216;2024-01-07T10:22:36;101664.25;;;21.76;49.35
73205;BME280;61413;-27.702;153.216;2024-01-07T10:25:03;101665.54;;;22.22;49.22
73205;BME280;61413;-27.702;153.216;2024-01-07T10:27:33;101668.02;;;21.99;49.11
73205;BME280;61413;-27.702;153.216;2024-01-07T10:29:57;101666.92;;;21.66;48.98
73205;BME280;61413;-27.702;153.216;2024-01-07T10:32:24;101671.42;;;21.97;48.94
73205;BME280;61413;-27.702;153.216;2024-01-07T10:34:52;101673.84;;;21.88;48.84
73205;BME280;61413;-27.702;153.216;2024-01-07T10:37:19;101676.95;;;21.87;48.83
73205;BME280;61413;-27.702;153.216;2024-01-07T10:39:45;101681.26;;;22.09;48.76
73205;BME280;61413;-27.702;153.216;2024-01-07T10:42:23;101689.91;;;21.78;48.72
73205;BME280;61413;-27.702;153.216;2024-01-07T10:46:24;101701.59;;;22.33;48.81
73205;BME280;61413;-27.702;153.216;2024-01-07T10:48:55;101696.47;;;22.10;48.66
73205;BME280;61413;-27.702;153.216;2024-01-07T10:51:18;101697.55;;;22.32;48.57
73205;BME280;61413;-27.702;153.216;2024-01-07T10:53:44;101693.74;;;21.86;48.48
73205;BME280;61413;-27.702;153.216;2024-01-07T10:56:12;101693.37;;;21.66;48.45
73205;BME280;61413;-27.702;153.216;2024-01-07T10:58:36;101701.10;;;22.27;48.49
73205;BME280;61413;-27.702;153.216;2024-01-07T11:01:03;101707.01;;;22.21;48.52
73205;BME280;61413;-27.702;153.216;2024-01-07T11:03:37;101716.21;;;22.23;48.59
73205;BME280;61413;-27.702;153.216;2024-01-07T11:08:23;101736.32;;;21.51;48.95
73205;BME280;61413;-27.702;153.216;2024-01-07T11:10:48;101741.50;;;21.91;48.76
73205;BME280;61413;-27.702;153.216;2024-01-07T11:13:08;101743.68;;;21.86;48.56
73205;BME280;61413;-27.702;153.216;2024-01-07T11:16:07;101741.48;;;22.06;48.55
73205;BME280;61413;-27.702;153.216;2024-01-07T11:18:04;101738.81;;;21.83;48.61
73205;BME280;61413;-27.702;153.216;2024-01-07T11:20:32;101739.06;;;22.15;48.77
73205;BME280;61413;-27.702;153.216;2024-01-07T11:23:27;101745.76;;;21.84;48.79
73205;BME280;61413;-27.702;153.216;2024-01-07T11:25:34;101739.50;;;21.93;48.80
73205;BME280;61413;-27.702;153.216;2024-01-07T11:27:54;101736.44;;;22.18;48.74
73205;BME280;61413;-27.702;153.216;2024-01-07T11:30:22;101737.57;;;22.04;48.64
73205;BME280;61413;-27.702;153.216;2024-01-07T11:32:49;101738.45;;;21.95;48.65
73205;BME280;61413;-27.702;153.216;2024-01-07T11:35:14;101736.77;;;22.06;48.63
73205;BME280;61413;-27.702;153.216;2024-01-07T11:37:41;101737.95;;;22.04;48.55
73205;BME280;61413;-27.702;153.216;2024-01-07T11:40:08;101733.98;;;22.00;48.58
73205;BME280;61413;-27.702;153.216;2024-01-07T11:42:35;101727.06;;;21.84;48.67
73205;BME280;61413;-27.702;153.216;2024-01-07T11:45:03;101730.32;;;21.38;48.61
73205;BME280;61413;-27.702;153.216;2024-01-07T11:47:31;101730.80;;;21.85;48.37
73205;BME280;61413;-27.702;153.216;2024-01-07T11:49:58;101730.39;;;21.98;48.28
73205;BME280;61413;-27.702;153.216;2024-01-07T11:52:25;101724.74;;;22.06;48.32
73205;BME280;61413;-27.702;153.216;2024-01-07T11:54:52;101723.66;;;22.12;48.39
73205;BME280;61413;-27.702;153.216;2024-01-07T11:57:18;101723.18;;;21.95;48.52
73205;BME280;61413;-27.702;153.216;2024-01-07T11:59:45;101721.07;;;22.01;48.54
73205;BME280;61413;-27.702;153.216;2024-01-07T12:02:12;101726.71;;;21.69;48.60
73205;BME280;61413;-27.702;153.216;2024-01-07T12:04:39;101730.08;;;21.99;48.57
73205;BME280;61413;-27.702;153.216;2024-01-07T12:07:06;101732.94;;;22.01;48.70
73205;BME280;61413;-27.702;153.216;2024-01-07T12:09:33;101733.38;;;21.67;48.72
73205;BME280;61413;-27.702;153.216;2024-01-07T12:11:59;101734.37;;;22.01;48.77
73205;BME280;61413;-27.702;153.216;2024-01-07T12:14:27;101741.49;;;22.07;48.85
73205;BME280;61413;-27.702;153.216;2024-01-07T12:16:55;101742.52;;;22.03;48.96
73205;BME280;61413;-27.702;153.216;2024-01-07T12:19:23;101743.77;;;22.03;49.17
73205;BME280;61413;-27.702;153.216;2024-01-07T12:21:57;101737.32;;;21.41;49.33
73205;BME280;61413;-27.702;153.216;2024-01-07T12:24:26;101732.83;;;21.57;49.38
73205;BME280;61413;-27.702;153.216;2024-01-07T12:26:45;101722.28;;;21.88;49.48
73205;BME280;61413;-27.702;153.216;2024-01-07T12:29:15;101712.12;;;22.09;49.52
73205;BME280;61413;-27.702;153.216;2024-01-07T12:31:37;101711.91;;;21.91;49.59
73205;BME280;61413;-27.702;153.216;2024-01-07T12:34:04;101711.97;;;21.92;49.78
73205;BME280;61413;-27.702;153.216;2024-01-07T12:36:32;101717.25;;;21.88;49.85
73205;BME280;61413;-27.702;153.216;2024-01-07T12:38:59;101736.70;;;22.03;49.72
73205;BME280;61413;-27.702;153.216;2024-01-07T12:41:25;101739.96;;;22.00;49.69
73205;BME280;61413;-27.702;153.216;2024-01-07T12:43:53;101732.41;;;21.71;49.89
73205;BME280;61413;-27.702;153.216;2024-01-07T12:46:20;101730.17;;;21.48;50.10
73205;BME280;61413;-27.702;153.216;2024-01-07T12:48:47;101726.23;;;21.43;50.11
73205;BME280;61413;-27.702;153.216;2024-01-07T12:54:01;101719.17;;;21.14;50.67
73205;BME280;61413;-27.702;153.216;2024-01-07T12:56:30;101719.49;;;21.21;50.74
73205;BME280;61413;-27.702;153.216;2024-01-07T12:58:53;101716.76;;;21.19;50.65
73205;BME280;61413;-27.702;153.216;2024-01-07T13:01:20;101714.76;;;21.05;50.87
73205;BME280;61413;-27.702;153.216;2024-01-07T13:03:47;101707.65;;;21.35;51.21
73205;BME280;61413;-27.702;153.216;2024-01-07T13:06:14;101706.32;;;21.22;51.49
73205;BME280;61413;-27.702;153.216;2024-01-07T13:08:41;101697.79;;;21.17;51.87
73205;BME280;61413;-27.702;153.216;2024-01-07T13:11:08;101706.59;;;20.90;51.92